createdAt,value
2022-07-26T00:01:00.210Z,24.20
2022-07-26T00:03:28.061Z,24.20
2022-07-26T00:05:55.886Z,24.20
2022-07-26T00:08:23.706Z,24.20
2022-07-26T00:10:52.624Z,24.20
2022-07-26T00:13:21.414Z,24.20
2022-07-26T00:15:50.263Z,24.10
2022-07-26T00:18:18.403Z,24.10
2022-07-26T00:20:46.547Z,24.10
2022-07-26T00:23:14.494Z,24.10
2022-07-26T00:25:42.676Z,24.10
2022-07-26T00:28:10.887Z,24.10
2022-07-26T00:30:40.003Z,24.10
2022-07-26T00:33:08.185Z,24.10
2022-07-26T00:35:36.324Z,24.00
2022-07-26T00:38:04.171Z,23.90
2022-07-26T00:40:32.283Z,23.90
2022-07-26T00:43:00.151Z,23.90
2022-07-26T00:45:29.964Z,23.90
2022-07-26T00:48:00.441Z,23.80
2022-07-26T00:50:28.296Z,23.70
2022-07-26T00:52:56.729Z,23.60
2022-07-26T00:55:24.810Z,23.60
2022-07-26T00:57:52.951Z,23.60
2022-07-26T01:00:22.760Z,23.50
2022-07-26T01:02:51.065Z,23.40
2022-07-26T01:05:19.063Z,23.40
2022-07-26T01:07:47.604Z,23.30
2022-07-26T01:10:15.447Z,23.40
2022-07-26T01:12:44.284Z,23.30
2022-07-26T01:15:13.262Z,23.40
2022-07-26T01:17:41.471Z,23.40
2022-07-26T01:20:10.433Z,23.30
2022-07-26T01:22:38.324Z,23.30
2022-07-26T01:25:06.710Z,23.30
2022-07-26T01:27:40.151Z,23.30
2022-07-26T01:30:10.174Z,23.20
2022-07-26T01:32:38.075Z,23.20
2022-07-26T01:35:07.886Z,23.20
2022-07-26T01:37:35.757Z,23.20
2022-07-26T01:40:04.809Z,23.20
2022-07-26T01:42:35.103Z,23.10
2022-07-26T01:45:03.385Z,23.10
2022-07-26T01:47:31.229Z,23.00
2022-07-26T01:49:59.057Z,23.00
2022-07-26T01:52:28.298Z,23.00
2022-07-26T01:54:56.163Z,23.00
2022-07-26T01:57:23.975Z,22.90
2022-07-26T01:59:51.821Z,22.90
2022-07-26T02:02:19.760Z,22.90
2022-07-26T02:05:00.118Z,22.90
2022-07-26T02:07:28.003Z,22.90
2022-07-26T02:09:56.414Z,22.80
2022-07-26T02:12:26.106Z,22.80
2022-07-26T02:14:53.921Z,22.80
2022-07-26T02:17:21.809Z,22.80
2022-07-26T02:19:49.757Z,22.80
2022-07-26T02:22:19.995Z,22.80
2022-07-26T02:24:48.690Z,22.80
2022-07-26T02:27:16.819Z,22.80
2022-07-26T02:29:44.750Z,22.80
2022-07-26T02:32:12.583Z,22.80
2022-07-26T02:34:40.520Z,22.80
2022-07-26T02:37:08.451Z,22.80
2022-07-26T02:39:36.547Z,22.80
2022-07-26T02:42:04.473Z,22.80
2022-07-26T02:44:32.560Z,22.70
2022-07-26T02:47:00.497Z,22.60
2022-07-26T02:49:28.389Z,22.50
2022-07-26T02:51:56.313Z,22.50
2022-07-26T02:54:24.261Z,22.50
2022-07-26T02:56:52.224Z,22.60
2022-07-26T02:59:20.109Z,22.60
2022-07-26T03:01:48.012Z,22.60
2022-07-26T03:04:15.903Z,22.70
2022-07-26T03:06:43.817Z,22.70
2022-07-26T03:09:11.695Z,22.70
2022-07-26T03:11:40.353Z,22.50
2022-07-26T03:14:08.868Z,22.40
2022-07-26T03:16:37.108Z,22.40
2022-07-26T03:19:05.068Z,22.40
2022-07-26T03:21:32.948Z,22.40
2022-07-26T03:24:00.798Z,22.50
2022-07-26T03:26:30.320Z,22.50
2022-07-26T03:28:58.184Z,22.50
2022-07-26T03:31:26.858Z,22.50
2022-07-26T03:33:57.490Z,22.50
2022-07-26T03:36:29.477Z,22.50
2022-07-26T03:38:57.323Z,22.50
2022-07-26T03:41:25.288Z,22.50
2022-07-26T03:43:53.110Z,22.40
2022-07-26T03:46:21.026Z,22.40
2022-07-26T03:48:49.212Z,22.40
2022-07-26T03:51:17.106Z,22.40
2022-07-26T03:53:44.973Z,22.30
2022-07-26T03:56:32.900Z,22.20
2022-07-26T03:59:08.365Z,22.20
2022-07-26T04:01:38.264Z,22.30
2022-07-26T04:04:06.470Z,22.20
2022-07-26T04:06:37.703Z,22.20
2022-07-26T04:09:06.436Z,22.10
2022-07-26T04:11:35.915Z,22.00
2022-07-26T04:14:05.394Z,21.90
2022-07-26T04:16:33.721Z,21.80
2022-07-26T04:19:01.733Z,21.70
2022-07-26T04:21:29.543Z,21.70
2022-07-26T04:23:57.458Z,21.70
2022-07-26T04:26:25.365Z,21.80
2022-07-26T04:28:53.243Z,21.90
2022-07-26T04:31:21.303Z,22.00
2022-07-26T04:33:49.219Z,22.00
2022-07-26T04:36:17.087Z,21.90
2022-07-26T04:38:44.925Z,21.90
2022-07-26T04:41:12.801Z,21.80
2022-07-26T04:43:40.676Z,21.80
2022-07-26T04:46:08.603Z,21.70
2022-07-26T04:48:37.681Z,21.70
2022-07-26T04:51:05.557Z,21.80
2022-07-26T04:53:35.728Z,21.80
2022-07-26T04:56:04.088Z,21.80
2022-07-26T04:58:31.897Z,21.80
2022-07-26T05:01:10.137Z,21.80
2022-07-26T05:03:38.903Z,21.80
2022-07-26T05:06:07.136Z,21.70
2022-07-26T05:08:35.084Z,21.70
2022-07-26T05:11:03.125Z,21.60
2022-07-26T05:13:31.496Z,21.60
2022-07-26T05:16:00.559Z,21.50
2022-07-26T05:18:32.003Z,21.60
2022-07-26T05:21:17.167Z,21.60
2022-07-26T05:23:45.270Z,21.70
2022-07-26T05:26:13.516Z,21.80
2022-07-26T05:28:41.429Z,22.00
2022-07-26T05:31:09.419Z,22.00
2022-07-26T05:33:37.303Z,22.00
2022-07-26T05:36:05.433Z,21.80
2022-07-26T05:38:33.313Z,21.80
2022-07-26T05:41:01.256Z,21.70
2022-07-26T05:43:40.710Z,21.80
2022-07-26T05:46:10.545Z,21.80
2022-07-26T05:48:38.942Z,21.90
2022-07-26T05:51:07.076Z,21.90
2022-07-26T05:53:35.215Z,21.90
2022-07-26T05:56:03.130Z,22.00
2022-07-26T05:58:31.405Z,22.10
2022-07-26T06:00:59.401Z,22.10
2022-07-26T06:03:27.974Z,22.10
2022-07-26T06:05:57.719Z,22.10
2022-07-26T06:08:26.769Z,22.20
2022-07-26T06:10:55.433Z,22.30
2022-07-26T06:13:23.507Z,22.30
2022-07-26T06:15:51.815Z,22.30
2022-07-26T06:18:19.688Z,22.10
2022-07-26T06:20:48.771Z,22.20
2022-07-26T06:23:17.015Z,22.30
2022-07-26T06:25:44.962Z,22.50
2022-07-26T06:28:13.069Z,22.60
2022-07-26T06:30:41.114Z,22.80
2022-07-26T06:33:10.599Z,22.90
2022-07-26T06:35:39.855Z,22.90
2022-07-26T06:38:08.084Z,23.00
2022-07-26T06:40:36.353Z,23.20
2022-07-26T06:43:04.998Z,23.50
2022-07-26T06:45:34.382Z,23.70
2022-07-26T06:48:02.337Z,24.10
2022-07-26T06:50:30.170Z,24.50
2022-07-26T06:53:01.205Z,24.70
2022-07-26T06:55:31.879Z,24.80
2022-07-26T06:57:59.989Z,25.00
2022-07-26T07:00:28.029Z,24.90
2022-07-26T07:02:55.916Z,24.90
2022-07-26T07:05:23.920Z,25.00
2022-07-26T07:07:51.848Z,25.10
2022-07-26T07:10:19.905Z,25.20
2022-07-26T07:12:51.758Z,25.30
2022-07-26T07:15:19.655Z,25.60
2022-07-26T07:17:47.608Z,25.90
2022-07-26T07:20:15.513Z,25.90
2022-07-26T07:22:43.455Z,26.00
2022-07-26T07:25:11.370Z,26.10
2022-07-26T07:27:43.157Z,26.20
2022-07-26T07:30:12.043Z,26.80
2022-07-26T07:32:40.136Z,26.80
2022-07-26T07:35:12.669Z,26.70
2022-07-26T07:37:53.823Z,26.70
2022-07-26T07:40:30.139Z,26.60
2022-07-26T07:42:59.512Z,26.60
2022-07-26T07:45:27.922Z,26.50
2022-07-26T07:47:56.073Z,26.50
2022-07-26T07:50:27.096Z,26.70
2022-07-26T07:52:56.559Z,27.10
2022-07-26T07:55:41.489Z,27.50
2022-07-26T07:58:14.326Z,27.40
2022-07-26T08:00:42.683Z,27.60
2022-07-26T08:03:10.683Z,27.80
2022-07-26T08:05:40.400Z,28.00
2022-07-26T08:08:08.911Z,28.00
2022-07-26T08:10:38.701Z,27.70
2022-07-26T08:13:13.784Z,27.40
2022-07-26T08:15:41.586Z,27.40
2022-07-26T08:18:09.451Z,27.40
2022-07-26T08:20:41.936Z,27.50
2022-07-26T08:23:09.746Z,27.40
2022-07-26T08:25:42.536Z,27.10
2022-07-26T08:28:37.559Z,27.00
2022-07-26T08:31:07.044Z,27.20
2022-07-26T08:33:36.351Z,27.40
2022-07-26T08:36:08.762Z,27.70
2022-07-26T08:38:36.609Z,27.50
2022-07-26T08:41:04.640Z,27.50
2022-07-26T08:43:32.807Z,27.90
2022-07-26T08:46:24.466Z,28.20
2022-07-26T08:48:53.683Z,28.20
2022-07-26T08:51:24.045Z,28.30
2022-07-26T08:53:57.999Z,28.30
2022-07-26T08:56:29.968Z,28.20
2022-07-26T08:58:58.234Z,28.00
2022-07-26T09:01:26.156Z,28.00
2022-07-26T09:03:54.153Z,27.70
2022-07-26T09:06:26.267Z,27.70
2022-07-26T09:09:10.756Z,27.30
2022-07-26T09:11:38.929Z,27.20
2022-07-26T09:14:07.207Z,27.10
2022-07-26T09:16:39.250Z,27.30
2022-07-26T09:19:19.577Z,27.40
2022-07-26T09:21:50.224Z,27.20
2022-07-26T09:24:31.505Z,27.00
2022-07-26T09:27:03.032Z,27.10
2022-07-26T09:29:31.061Z,27.50
2022-07-26T09:32:23.732Z,27.80
2022-07-26T09:34:54.369Z,27.90
2022-07-26T09:37:38.971Z,27.80
2022-07-26T09:40:11.091Z,27.70
2022-07-26T09:42:42.750Z,27.30
2022-07-26T09:45:17.658Z,27.00
2022-07-26T09:47:45.565Z,26.70
2022-07-26T09:50:17.828Z,26.50
2022-07-26T09:53:11.267Z,26.70
2022-07-26T09:55:45.408Z,27.20
2022-07-26T09:58:15.027Z,27.90
2022-07-26T10:00:43.328Z,28.50
2022-07-26T10:03:11.263Z,28.90
2022-07-26T10:05:39.158Z,29.10
2022-07-26T10:08:07.311Z,29.30
2022-07-26T10:10:38.232Z,29.80
2022-07-26T10:13:06.299Z,30.20
2022-07-26T10:15:35.460Z,30.10
2022-07-26T10:18:03.844Z,30.10
2022-07-26T10:20:46.743Z,30.00
2022-07-26T10:23:33.747Z,29.80
2022-07-26T10:26:02.132Z,29.40
2022-07-26T10:28:31.149Z,29.30
2022-07-26T10:31:17.730Z,29.50
2022-07-26T10:33:47.424Z,29.50
2022-07-26T10:36:26.671Z,29.20
2022-07-26T10:38:59.903Z,29.00
2022-07-26T10:41:57.052Z,28.90
2022-07-26T10:44:28.825Z,28.60
2022-07-26T10:46:57.955Z,28.70
2022-07-26T10:49:29.559Z,28.20
2022-07-26T10:52:20.886Z,27.80
2022-07-26T10:54:57.882Z,28.00
2022-07-26T10:57:32.792Z,28.70
2022-07-26T11:00:01.217Z,29.30
2022-07-26T11:02:33.368Z,29.70
2022-07-26T11:05:14.188Z,29.80
2022-07-26T11:07:52.026Z,29.50
2022-07-26T11:10:30.747Z,28.60
2022-07-26T11:13:04.603Z,28.60
2022-07-26T11:15:32.679Z,29.00
2022-07-26T11:18:09.303Z,29.50
2022-07-26T11:20:37.248Z,29.60
2022-07-26T11:23:05.402Z,30.00
2022-07-26T11:25:33.262Z,30.30
2022-07-26T11:28:01.782Z,30.30
2022-07-26T11:30:30.365Z,30.30
2022-07-26T11:33:01.537Z,30.60
2022-07-26T11:35:30.144Z,30.50
2022-07-26T11:38:11.072Z,30.20
2022-07-26T11:40:43.364Z,30.40
2022-07-26T11:43:11.254Z,29.80
2022-07-26T11:45:39.549Z,29.40
2022-07-26T11:48:07.538Z,29.20
2022-07-26T11:50:35.386Z,29.40
2022-07-26T11:53:03.344Z,29.90
2022-07-26T11:55:31.789Z,30.20
2022-07-26T11:58:05.564Z,30.20
2022-07-26T12:00:33.530Z,30.20
2022-07-26T12:03:04.034Z,30.50
2022-07-26T12:05:34.152Z,30.70
2022-07-26T12:08:05.943Z,30.50
2022-07-26T12:10:33.947Z,29.80
2022-07-26T12:13:12.158Z,29.80
2022-07-26T12:15:46.623Z,30.20
2022-07-26T12:18:22.616Z,30.50
2022-07-26T12:21:09.842Z,30.60
2022-07-26T12:23:49.725Z,30.80
2022-07-26T12:26:24.092Z,31.00
2022-07-26T12:28:52.167Z,31.10
2022-07-26T12:31:24.649Z,31.00
2022-07-26T12:33:52.759Z,30.80
2022-07-26T12:36:27.658Z,30.90
2022-07-26T12:38:57.182Z,30.90
2022-07-26T12:41:38.933Z,30.70
2022-07-26T12:44:08.054Z,30.40
2022-07-26T12:46:36.940Z,30.50
2022-07-26T12:49:05.748Z,30.70
2022-07-26T12:51:36.757Z,30.60
2022-07-26T12:54:07.179Z,30.00
2022-07-26T12:56:38.015Z,29.60
2022-07-26T12:59:05.900Z,29.70
2022-07-26T13:01:34.080Z,29.70
2022-07-26T13:04:02.273Z,29.40
2022-07-26T13:06:30.306Z,28.80
2022-07-26T13:08:58.388Z,28.70
2022-07-26T13:11:26.397Z,29.20
2022-07-26T13:13:54.574Z,29.10
2022-07-26T13:16:23.092Z,29.00
2022-07-26T13:18:51.154Z,29.20
2022-07-26T13:21:20.831Z,29.50
2022-07-26T13:23:51.017Z,29.90
2022-07-26T13:26:19.044Z,30.20
2022-07-26T13:28:49.616Z,30.20
2022-07-26T13:31:18.411Z,30.20
2022-07-26T13:33:46.538Z,30.20
2022-07-26T13:36:14.481Z,30.20
2022-07-26T13:38:43.850Z,30.20
2022-07-26T13:41:11.959Z,30.20
2022-07-26T13:43:39.995Z,30.30
2022-07-26T13:46:07.971Z,30.50
2022-07-26T13:48:36.013Z,30.50
2022-07-26T13:51:04.187Z,30.30
2022-07-26T13:53:32.150Z,30.20
2022-07-26T13:55:59.980Z,30.40
2022-07-26T13:58:27.885Z,30.10
2022-07-26T14:00:56.078Z,29.70
2022-07-26T14:03:24.131Z,29.50
2022-07-26T14:05:51.995Z,29.30
2022-07-26T14:08:19.988Z,29.60
2022-07-26T14:10:47.886Z,29.60
2022-07-26T14:13:15.892Z,29.70
2022-07-26T14:15:43.790Z,29.90
2022-07-26T14:18:11.670Z,29.90
2022-07-26T14:20:39.559Z,30.10
2022-07-26T14:23:07.415Z,30.10
2022-07-26T14:25:35.308Z,30.30
2022-07-26T14:28:03.210Z,30.10
2022-07-26T14:30:31.073Z,29.70
2022-07-26T14:32:58.945Z,29.20
2022-07-26T14:35:26.807Z,29.30
2022-07-26T14:37:54.700Z,29.40
2022-07-26T14:40:22.538Z,29.70
2022-07-26T14:42:50.523Z,29.90
2022-07-26T14:45:18.424Z,30.00
2022-07-26T14:47:46.464Z,29.70
2022-07-26T14:50:14.864Z,29.70
2022-07-26T14:52:47.430Z,29.70
2022-07-26T14:55:15.768Z,30.00
2022-07-26T14:57:44.271Z,30.20
2022-07-26T15:00:14.261Z,30.20
2022-07-26T15:02:42.950Z,30.50
2022-07-26T15:05:11.859Z,30.60
2022-07-26T15:07:40.370Z,30.60
2022-07-26T15:10:09.349Z,30.60
2022-07-26T15:12:37.680Z,30.40
2022-07-26T15:15:06.296Z,30.40
2022-07-26T15:17:34.342Z,29.80
2022-07-26T15:20:02.289Z,29.60
2022-07-26T15:22:30.180Z,29.60
2022-07-26T15:24:58.029Z,29.80
2022-07-26T15:27:33.344Z,30.10
2022-07-26T15:30:09.063Z,30.20
2022-07-26T15:32:41.194Z,30.40
2022-07-26T15:35:14.550Z,30.50
2022-07-26T15:37:44.800Z,30.30
2022-07-26T15:40:13.428Z,29.90
2022-07-26T15:42:44.183Z,30.10
2022-07-26T15:45:12.719Z,30.20
2022-07-26T15:47:54.923Z,30.10
2022-07-26T15:50:26.244Z,30.10
2022-07-26T15:52:54.159Z,30.30
2022-07-26T15:55:22.384Z,30.30
2022-07-26T15:57:50.264Z,30.20
2022-07-26T16:00:18.456Z,29.90
2022-07-26T16:02:46.388Z,29.70
2022-07-26T16:05:14.465Z,29.40
2022-07-26T16:07:43.043Z,29.10
2022-07-26T16:10:13.247Z,28.80
2022-07-26T16:12:44.897Z,28.30
2022-07-26T16:15:13.262Z,27.90
2022-07-26T16:17:41.184Z,27.60
2022-07-26T16:20:09.515Z,27.50
2022-07-26T16:22:44.251Z,27.60
2022-07-26T16:25:14.636Z,27.50
2022-07-26T16:27:43.448Z,27.40
2022-07-26T16:30:12.945Z,27.30
2022-07-26T16:32:40.905Z,27.40
2022-07-26T16:35:09.454Z,27.60
2022-07-26T16:37:37.490Z,27.60
2022-07-26T16:40:08.053Z,27.70
2022-07-26T16:42:36.019Z,27.70
2022-07-26T16:45:04.560Z,27.50
2022-07-26T16:47:32.446Z,27.50
2022-07-26T16:50:00.274Z,27.40
2022-07-26T16:52:28.194Z,27.30
2022-07-26T16:54:56.077Z,27.20
2022-07-26T16:57:24.293Z,27.20
2022-07-26T16:59:52.110Z,27.20
2022-07-26T17:02:20.029Z,27.20
2022-07-26T17:04:47.959Z,27.20
2022-07-26T17:07:24.997Z,27.30
2022-07-26T17:09:54.146Z,27.20
2022-07-26T17:12:22.147Z,27.10
2022-07-26T17:14:50.156Z,27.00
2022-07-26T17:17:18.045Z,26.90
2022-07-26T17:19:45.869Z,26.70
2022-07-26T17:22:13.831Z,26.50
2022-07-26T17:24:41.822Z,26.50
2022-07-26T17:27:09.663Z,26.40
2022-07-26T17:29:37.686Z,26.40
2022-07-26T17:32:05.687Z,26.40
2022-07-26T17:34:34.508Z,26.30
2022-07-26T17:37:03.178Z,26.30
2022-07-26T17:39:50.932Z,26.30
2022-07-26T17:42:22.719Z,26.30
2022-07-26T17:44:53.630Z,26.20
2022-07-26T17:47:29.693Z,26.20
2022-07-26T17:50:35.507Z,26.10
2022-07-26T17:52:55.352Z,26.00
2022-07-26T17:55:23.223Z,26.00
2022-07-26T17:57:51.636Z,26.00
2022-07-26T18:00:20.905Z,25.90
2022-07-26T18:02:49.132Z,25.80
2022-07-26T18:05:18.084Z,25.80
2022-07-26T18:07:47.516Z,25.70
2022-07-26T18:10:16.129Z,25.70
2022-07-26T18:12:45.822Z,25.60
2022-07-26T18:15:14.117Z,25.40
2022-07-26T18:17:47.011Z,25.30
2022-07-26T18:20:18.371Z,25.30
2022-07-26T18:22:50.557Z,25.20
2022-07-26T18:25:18.712Z,25.20
2022-07-26T18:27:46.578Z,25.10
2022-07-26T18:30:14.506Z,25.10
2022-07-26T18:32:42.343Z,25.10
2022-07-26T18:35:10.276Z,25.10
2022-07-26T18:37:38.117Z,25.00
2022-07-26T18:40:06.510Z,24.90
2022-07-26T18:42:34.355Z,24.90
2022-07-26T18:45:02.263Z,24.80
2022-07-26T18:47:30.458Z,24.80
2022-07-26T18:49:58.264Z,24.70
2022-07-26T18:52:31.647Z,24.70
2022-07-26T18:55:01.017Z,24.60
2022-07-26T18:57:28.909Z,24.50
2022-07-26T18:59:56.775Z,24.50
2022-07-26T19:02:24.696Z,24.50
2022-07-26T19:04:52.576Z,24.40
2022-07-26T19:07:20.544Z,24.30
2022-07-26T19:09:48.440Z,24.20
2022-07-26T19:12:16.295Z,24.20
2022-07-26T19:14:44.179Z,24.10
2022-07-26T19:17:12.858Z,24.00
2022-07-26T19:19:40.919Z,23.90
2022-07-26T19:22:09.065Z,23.90
2022-07-26T19:24:42.810Z,23.90
2022-07-26T19:27:11.160Z,23.80
2022-07-26T19:29:39.210Z,23.70
2022-07-26T19:32:07.348Z,23.50
2022-07-26T19:34:35.334Z,23.40
2022-07-26T19:37:03.485Z,23.40
2022-07-26T19:39:34.476Z,23.40
2022-07-26T19:42:04.780Z,23.40
2022-07-26T19:44:32.703Z,23.40
2022-07-26T19:47:00.511Z,23.30
2022-07-26T19:49:28.464Z,23.30
2022-07-26T19:51:56.498Z,23.30
2022-07-26T19:54:24.559Z,23.20
2022-07-26T19:56:52.476Z,23.20
2022-07-26T19:59:23.696Z,23.10
2022-07-26T20:01:53.809Z,23.10
2022-07-26T20:04:23.042Z,23.00
2022-07-26T20:06:50.912Z,22.90
2022-07-26T20:09:18.810Z,22.80
2022-07-26T20:11:51.923Z,22.80
2022-07-26T20:14:20.688Z,22.80
2022-07-26T20:16:52.934Z,22.70
2022-07-26T20:19:24.740Z,22.50
2022-07-26T20:21:52.572Z,22.50
2022-07-26T20:24:20.697Z,22.60
2022-07-26T20:26:48.875Z,22.60
2022-07-26T20:29:16.767Z,22.70
2022-07-26T20:31:44.639Z,22.70
2022-07-26T20:34:12.754Z,22.80
2022-07-26T20:36:40.683Z,22.80
2022-07-26T20:39:09.091Z,22.70
2022-07-26T20:41:37.429Z,22.70
2022-07-26T20:44:06.985Z,22.60
2022-07-26T20:46:40.829Z,22.50
2022-07-26T20:49:09.979Z,22.50
2022-07-26T20:51:38.264Z,22.40
2022-07-26T20:54:06.601Z,22.10
2022-07-26T20:56:35.200Z,22.10
2022-07-26T20:59:03.524Z,22.00
2022-07-26T21:01:32.656Z,22.00
2022-07-26T21:04:00.573Z,22.10
2022-07-26T21:06:29.049Z,22.10
2022-07-26T21:09:00.580Z,22.10
2022-07-26T21:11:37.190Z,21.90
2022-07-26T21:14:05.123Z,21.70
2022-07-26T21:16:33.075Z,21.50
2022-07-26T21:19:01.767Z,21.40
2022-07-26T21:21:29.643Z,21.30
2022-07-26T21:23:57.477Z,21.40
2022-07-26T21:26:25.363Z,21.40
2022-07-26T21:28:53.259Z,21.50
2022-07-26T21:31:22.118Z,21.60
2022-07-26T21:33:50.100Z,21.60
2022-07-26T21:36:18.010Z,21.70
2022-07-26T21:38:46.028Z,21.70
2022-07-26T21:41:14.191Z,21.70
2022-07-26T21:43:42.156Z,21.70
2022-07-26T21:46:13.025Z,21.80
2022-07-26T21:48:41.727Z,21.80
2022-07-26T21:51:09.767Z,21.80
2022-07-26T21:53:37.718Z,21.80
2022-07-26T21:56:06.834Z,21.80
2022-07-26T21:58:36.923Z,21.80
2022-07-26T22:01:08.928Z,21.80
2022-07-26T22:03:37.580Z,21.80
2022-07-26T22:06:06.356Z,21.80
2022-07-26T22:08:34.832Z,21.70
2022-07-26T22:11:02.728Z,21.50
2022-07-26T22:13:30.629Z,21.40
2022-07-26T22:15:58.472Z,21.30
2022-07-26T22:18:26.483Z,21.20
2022-07-26T22:20:56.263Z,21.10
2022-07-26T22:23:24.270Z,21.10
2022-07-26T22:25:52.095Z,21.10
2022-07-26T22:28:19.965Z,21.00
2022-07-26T22:30:47.884Z,21.00
2022-07-26T22:33:16.361Z,21.00
2022-07-26T22:35:44.363Z,20.90
2022-07-26T22:38:12.951Z,20.90
2022-07-26T22:40:41.452Z,20.90
2022-07-26T22:43:10.027Z,20.90
2022-07-26T22:45:38.462Z,20.80
2022-07-26T22:48:09.274Z,20.80
2022-07-26T22:50:37.271Z,20.80
2022-07-26T22:53:06.527Z,20.70
2022-07-26T22:55:37.459Z,20.70
2022-07-26T22:58:05.482Z,20.60
2022-07-26T23:00:33.488Z,20.60
2022-07-26T23:03:01.411Z,20.60
2022-07-26T23:05:45.765Z,20.60
2022-07-26T23:11:03.935Z,20.50
2022-07-26T23:13:31.877Z,20.40
2022-07-26T23:16:01.060Z,20.50
2022-07-26T23:18:30.251Z,20.40
2022-07-26T23:20:58.307Z,20.40
2022-07-26T23:23:29.734Z,20.30
2022-07-26T23:25:58.676Z,20.30
2022-07-26T23:28:36.872Z,20.30
2022-07-26T23:31:14.546Z,20.30
2022-07-26T23:33:50.906Z,20.20
2022-07-26T23:36:25.682Z,20.20
2022-07-26T23:38:54.453Z,20.20
2022-07-26T23:41:22.572Z,20.10
2022-07-26T23:43:50.863Z,20.00
2022-07-26T23:46:19.120Z,20.00
2022-07-26T23:48:47.358Z,19.90
2022-07-26T23:51:15.290Z,19.90
2022-07-26T23:53:43.390Z,19.90
2022-07-26T23:56:11.251Z,19.80
2022-07-26T23:58:39.157Z,19.70
